sensor_id;sensor_type;location;lat;lon;timestamp;pressure;altitude;pressure_sealevel;temperature;humidity
44926;BME280;30662;51.210;7.656;2023-04-30T00:00:24;150705.84;;;7.61;100.00
44926;BME280;30662;51.210;7.656;2023-04-30T00:02:50;150678.03;;;7.50;100.00
44926;BME280;30662;51.210;7.656;2023-04-30T00:05:16;150662.88;;;7.44;100.00
44926;BME280;30662;51.210;7.656;2023-04-30T00:07:42;150669.22;;;7.46;100.00
44926;BME280;30662;51.210;7.656;2023-04-30T00:10:09;150656.56;;;7.41;100.00
44926;BME280;30662;51.210;7.656;2023-04-30T00:12:36;150656.56;;;7.41;100.00
44926;BME280;30662;51.210;7.656;2023-04-30T00:15:02;150670.47;;;7.47;100.00
44926;BME280;30662;51.210;7.656;2023-04-30T00:17:28;150664.13;;;7.44;100.00
44926;BME280;30662;51.210;7.656;2023-04-30T00:19:54;150674.25;;;7.49;100.00
44926;BME280;30662;51.210;7.656;2023-04-30T00:22:21;150673.00;;;7.48;100.00
44926;BME280;30662;51.210;7.656;2023-04-30T00:24:47;150671.75;;;7.47;100.00
44926;BME280;30662;51.210;7.656;2023-04-30T00:27:13;150666.66;;;7.45;100.00
44926;BME280;30662;51.210;7.656;2023-04-30T00:29:39;150665.38;;;7.45;100.00
44926;BME280;30662;51.210;7.656;2023-04-30T00:32:04;150631.28;;;7.31;100.00
44926;BME280;30662;51.210;7.656;2023-04-30T00:34:31;150638.91;;;7.34;100.00
44926;BME280;30662;51.210;7.656;2023-04-30T00:36:56;150635.13;;;7.33;100.00
44926;BME280;30662;51.210;7.656;2023-04-30T00:39:22;150643.94;;;7.36;100.00
44926;BME280;30662;51.210;7.656;2023-04-30T00:41:48;150652.78;;;7.40;100.00
44926;BME280;30662;51.210;7.656;2023-04-30T00:44:14;150652.78;;;7.40;100.00
44926;BME280;30662;51.210;7.656;2023-04-30T00:46:40;150625.00;;;7.29;100.00
44926;BME280;30662;51.210;7.656;2023-04-30T00:49:07;150635.13;;;7.33;100.00
44926;BME280;30662;51.210;7.656;2023-04-30T00:51:34;150628.75;;;7.30;100.00
44926;BME280;30662;51.210;7.656;2023-04-30T00:54:01;150622.47;;;7.28;100.00
44926;BME280;30662;51.210;7.656;2023-04-30T00:56:28;150589.63;;;7.14;100.00
44926;BME280;30662;51.210;7.656;2023-04-30T00:58:55;150597.22;;;7.17;100.00
44926;BME280;30662;51.210;7.656;2023-04-30T01:01:26;150593.41;;;7.16;100.00
44926;BME280;30662;51.210;7.656;2023-04-30T01:03:55;150571.94;;;7.07;100.00
44926;BME280;30662;51.210;7.656;2023-04-30T01:06:21;150575.72;;;7.09;100.00
44926;BME280;30662;51.210;7.656;2023-04-30T01:08:48;150579.56;;;7.10;100.00
44926;BME280;30662;51.210;7.656;2023-04-30T01:16:24;150545.47;;;6.97;100.00
44926;BME280;30662;51.210;7.656;2023-04-30T01:18:58;150518.91;;;6.86;100.00
44926;BME280;30662;51.210;7.656;2023-04-30T01:21:26;150498.72;;;6.78;100.00
44926;BME280;30662;51.210;7.656;2023-04-30T01:24:17;150498.72;;;6.78;100.00
44926;BME280;30662;51.210;7.656;2023-04-30T01:29:41;150498.72;;;6.78;100.00
44926;BME280;30662;51.210;7.656;2023-04-30T01:32:09;150465.91;;;6.64;100.00
44926;BME280;30662;51.210;7.656;2023-04-30T01:34:36;150453.31;;;6.59;100.00
44926;BME280;30662;51.210;7.656;2023-04-30T01:43:24;150446.97;;;6.57;100.00
44926;BME280;30662;51.210;7.656;2023-04-30T01:46:26;150440.69;;;6.54;100.00
44926;BME280;30662;51.210;7.656;2023-04-30T01:52:11;150429.31;;;6.50;100.00
44926;BME280;30662;51.210;7.656;2023-04-30T01:54:54;150430.56;;;6.50;100.00
44926;BME280;30662;51.210;7.656;2023-04-30T01:57:31;150428.03;;;6.49;100.00
44926;BME280;30662;51.210;7.656;2023-04-30T01:59:57;150406.59;;;6.41;100.00
44926;BME280;30662;51.210;7.656;2023-04-30T02:02:24;150387.66;;;6.33;100.00
44926;BME280;30662;51.210;7.656;2023-04-30T02:04:50;150388.94;;;6.33;100.00
44926;BME280;30662;51.210;7.656;2023-04-30T02:07:27;150402.81;;;6.39;100.00
44926;BME280;30662;51.210;7.656;2023-04-30T02:09:56;150375.03;;;6.28;100.00
44926;BME280;30662;51.210;7.656;2023-04-30T02:12:22;150366.22;;;6.24;100.00
44926;BME280;30662;51.210;7.656;2023-04-30T02:14:48;150343.47;;;6.15;100.00
44926;BME280;30662;51.210;7.656;2023-04-30T02:17:14;150343.47;;;6.15;100.00
44926;BME280;30662;51.210;7.656;2023-04-30T02:19:48;150377.56;;;6.29;100.00
44926;BME280;30662;51.210;7.656;2023-04-30T02:22:15;150358.63;;;6.21;100.00
44926;BME280;30662;51.210;7.656;2023-04-30T02:24:44;150347.31;;;6.17;100.00
44926;BME280;30662;51.210;7.656;2023-04-30T02:27:10;150337.19;;;6.13;100.00
44926;BME280;30662;51.210;7.656;2023-04-30T02:29:36;150344.78;;;6.16;100.00
44926;BME280;30662;51.210;7.656;2023-04-30T02:32:01;150317.00;;;6.04;100.00
44926;BME280;30662;51.210;7.656;2023-04-30T02:34:28;150317.00;;;6.04;100.00
44926;BME280;30662;51.210;7.656;2023-04-30T02:36:54;150354.84;;;6.20;100.00
44926;BME280;30662;51.210;7.656;2023-04-30T02:39:19;150343.47;;;6.15;100.00
44926;BME280;30662;51.210;7.656;2023-04-30T02:41:45;150339.69;;;6.14;100.00
44926;BME280;30662;51.210;7.656;2023-04-30T02:44:11;150344.78;;;6.16;100.00
44926;BME280;30662;51.210;7.656;2023-04-30T02:46:37;150344.78;;;6.16;100.00
44926;BME280;30662;51.210;7.656;2023-04-30T02:49:03;150332.16;;;6.11;100.00
44926;BME280;30662;51.210;7.656;2023-04-30T02:51:29;150305.63;;;6.00;100.00
44926;BME280;30662;51.210;7.656;2023-04-30T02:53:54;150299.34;;;5.97;100.00
44926;BME280;30662;51.210;7.656;2023-04-30T02:56:20;150281.63;;;5.90;100.00
44926;BME280;30662;51.210;7.656;2023-04-30T02:58:46;150261.44;;;5.82;100.00
44926;BME280;30662;51.210;7.656;2023-04-30T03:01:12;150287.97;;;5.93;100.00
44926;BME280;30662;51.210;7.656;2023-04-30T03:03:38;150284.19;;;5.91;100.00
44926;BME280;30662;51.210;7.656;2023-04-30T03:06:04;150276.59;;;5.88;100.00
44926;BME280;30662;51.210;7.656;2023-04-30T03:08:30;150258.94;;;5.81;100.00
44926;BME280;30662;51.210;7.656;2023-04-30T03:10:56;150255.16;;;5.79;100.00
44926;BME280;30662;51.210;7.656;2023-04-30T03:13:22;150251.34;;;5.78;100.00
44926;BME280;30662;51.210;7.656;2023-04-30T03:15:57;150257.69;;;5.80;100.00
44926;BME280;30662;51.210;7.656;2023-04-30T03:18:25;150257.69;;;5.80;100.00
44926;BME280;30662;51.210;7.656;2023-04-30T03:20:51;150238.75;;;5.73;100.00
44926;BME280;30662;51.210;7.656;2023-04-30T03:23:16;150260.19;;;5.81;100.00
44926;BME280;30662;51.210;7.656;2023-04-30T03:25:42;150279.13;;;5.89;100.00
44926;BME280;30662;51.210;7.656;2023-04-30T03:28:08;150275.34;;;5.88;100.00
44926;BME280;30662;51.210;7.656;2023-04-30T03:30:34;150270.25;;;5.86;100.00
44926;BME280;30662;51.210;7.656;2023-04-30T03:33:00;150272.81;;;5.87;100.00
44926;BME280;30662;51.210;7.656;2023-04-30T03:35:26;150294.31;;;5.95;100.00
44926;BME280;30662;51.210;7.656;2023-04-30T03:37:52;150277.84;;;5.89;100.00
44926;BME280;30662;51.210;7.656;2023-04-30T03:40:18;150255.16;;;5.79;100.00
44926;BME280;30662;51.210;7.656;2023-04-30T03:42:44;150238.75;;;5.73;100.00
44926;BME280;30662;51.210;7.656;2023-04-30T03:45:10;150222.34;;;5.66;100.00
44926;BME280;30662;51.210;7.656;2023-04-30T03:47:36;150228.66;;;5.69;100.00
44926;BME280;30662;51.210;7.656;2023-04-30T03:50:02;150231.16;;;5.70;100.00
44926;BME280;30662;51.210;7.656;2023-04-30T03:52:28;150257.69;;;5.80;100.00
44926;BME280;30662;51.210;7.656;2023-04-30T03:54:56;150267.75;;;5.85;100.00
44926;BME280;30662;51.210;7.656;2023-04-30T03:57:21;150258.94;;;5.81;100.00
44926;BME280;30662;51.210;7.656;2023-04-30T03:59:48;150227.41;;;5.68;100.00
44926;BME280;30662;51.210;7.656;2023-04-30T04:02:14;150237.50;;;5.72;100.00
44926;BME280;30662;51.210;7.656;2023-04-30T04:04:41;150226.13;;;5.68;100.00
44926;BME280;30662;51.210;7.656;2023-04-30T04:07:06;150214.75;;;5.63;100.00
44926;BME280;30662;51.210;7.656;2023-04-30T04:09:34;150238.75;;;5.73;100.00
44926;BME280;30662;51.210;7.656;2023-04-30T04:12:00;150238.75;;;5.73;100.00
44926;BME280;30662;51.210;7.656;2023-04-30T04:14:27;150248.81;;;5.77;100.00
44926;BME280;30662;51.210;7.656;2023-04-30T04:16:53;150241.28;;;5.74;100.00
44926;BME280;30662;51.210;7.656;2023-04-30T04:19:18;150246.31;;;5.76;100.00
44926;BME280;30662;51.210;7.656;2023-04-30T04:21:44;150233.69;;;5.71;100.00
44926;BME280;30662;51.210;7.656;2023-04-30T04:24:10;150248.81;;;5.77;100.00
44926;BME280;30662;51.210;7.656;2023-04-30T04:26:37;150247.56;;;5.76;100.00
44926;BME280;30662;51.210;7.656;2023-04-30T04:29:03;150272.81;;;5.87;100.00
44926;BME280;30662;51.210;7.656;2023-04-30T04:31:29;150262.72;;;5.82;100.00
44926;BME280;30662;51.210;7.656;2023-04-30T04:33:58;150262.72;;;5.82;100.00
44926;BME280;30662;51.210;7.656;2023-04-30T04:36:27;150287.97;;;5.93;100.00
44926;BME280;30662;51.210;7.656;2023-04-30T04:38:55;150295.56;;;5.96;100.00
44926;BME280;30662;51.210;7.656;2023-04-30T04:41:31;150303.13;;;5.99;100.00
44926;BME280;30662;51.210;7.656;2023-04-30T04:43:59;150275.34;;;5.88;100.00
44926;BME280;30662;51.210;7.656;2023-04-30T04:46:26;150256.41;;;5.80;100.00
44926;BME280;30662;51.210;7.656;2023-04-30T04:48:53;150248.81;;;5.77;100.00
44926;BME280;30662;51.210;7.656;2023-04-30T04:51:19;150271.50;;;5.86;100.00
44926;BME280;30662;51.210;7.656;2023-04-30T04:53:45;150303.13;;;5.99;100.00
44926;BME280;30662;51.210;7.656;2023-04-30T04:56:11;150296.81;;;5.96;100.00
44926;BME280;30662;51.210;7.656;2023-04-30T04:58:38;150301.84;;;5.98;100.00
44926;BME280;30662;51.210;7.656;2023-04-30T05:01:04;150328.38;;;6.09;100.00
44926;BME280;30662;51.210;7.656;2023-04-30T05:03:31;150327.13;;;6.08;100.00
44926;BME280;30662;51.210;7.656;2023-04-30T05:05:58;150339.69;;;6.14;100.00
44926;BME280;30662;51.210;7.656;2023-04-30T05:08:24;150349.81;;;6.18;100.00
44926;BME280;30662;51.210;7.656;2023-04-30T05:10:50;150337.19;;;6.13;100.00
44926;BME280;30662;51.210;7.656;2023-04-30T05:13:16;150366.22;;;6.24;100.00
44926;BME280;30662;51.210;7.656;2023-04-30T05:15:42;150337.19;;;6.13;100.00
44926;BME280;30662;51.210;7.656;2023-04-30T05:18:07;150343.47;;;6.15;100.00
44926;BME280;30662;51.210;7.656;2023-04-30T05:20:33;150339.69;;;6.14;100.00
44926;BME280;30662;51.210;7.656;2023-04-30T05:22:59;150328.38;;;6.09;100.00
44926;BME280;30662;51.210;7.656;2023-04-30T05:25:25;150332.16;;;6.11;100.00
44926;BME280;30662;51.210;7.656;2023-04-30T05:27:51;150347.31;;;6.17;100.00
44926;BME280;30662;51.210;7.656;2023-04-30T05:30:17;150363.72;;;6.23;100.00
44926;BME280;30662;51.210;7.656;2023-04-30T05:32:43;150368.75;;;6.25;100.00
44926;BME280;30662;51.210;7.656;2023-04-30T05:35:15;150363.72;;;6.23;100.00
44926;BME280;30662;51.210;7.656;2023-04-30T05:37:41;150349.81;;;6.18;100.00
44926;BME280;30662;51.210;7.656;2023-04-30T05:40:08;150351.06;;;6.18;100.00
44926;BME280;30662;51.210;7.656;2023-04-30T05:42:34;150322.03;;;6.06;100.00
44926;BME280;30662;51.210;7.656;2023-04-30T05:45:01;150306.88;;;6.00;100.00
44926;BME280;30662;51.210;7.656;2023-04-30T05:47:27;150303.13;;;5.99;100.00
44926;BME280;30662;51.210;7.656;2023-04-30T05:49:53;150315.75;;;6.04;100.00
44926;BME280;30662;51.210;7.656;2023-04-30T05:52:19;150318.25;;;6.05;100.00
44926;BME280;30662;51.210;7.656;2023-04-30T05:54:45;150329.63;;;6.10;100.00
44926;BME280;30662;51.210;7.656;2023-04-30T05:57:15;150306.88;;;6.00;100.00
44926;BME280;30662;51.210;7.656;2023-04-30T05:59:41;150304.38;;;5.99;100.00
44926;BME280;30662;51.210;7.656;2023-04-30T06:02:07;150319.53;;;6.05;100.00
44926;BME280;30662;51.210;7.656;2023-04-30T06:04:33;150320.78;;;6.06;100.00
44926;BME280;30662;51.210;7.656;2023-04-30T06:06:59;150357.38;;;6.21;100.00
44926;BME280;30662;51.210;7.656;2023-04-30T06:09:25;150370.00;;;6.26;100.00
44926;BME280;30662;51.210;7.656;2023-04-30T06:11:51;150375.03;;;6.28;100.00
44926;BME280;30662;51.210;7.656;2023-04-30T06:14:18;150399.03;;;6.38;100.00
44926;BME280;30662;51.210;7.656;2023-04-30T06:16:44;150431.81;;;6.51;100.00
44926;BME280;30662;51.210;7.656;2023-04-30T06:19:11;150434.38;;;6.52;100.00
44926;BME280;30662;51.210;7.656;2023-04-30T06:21:37;150423.00;;;6.47;100.00
44926;BME280;30662;51.210;7.656;2023-04-30T06:24:04;150409.13;;;6.42;100.00
44926;BME280;30662;51.210;7.656;2023-04-30T06:26:30;150411.63;;;6.43;100.00
44926;BME280;30662;51.210;7.656;2023-04-30T06:28:55;150435.63;;;6.52;100.00
44926;BME280;30662;51.210;7.656;2023-04-30T06:31:21;150463.38;;;6.63;100.00
44926;BME280;30662;51.210;7.656;2023-04-30T06:33:47;150468.41;;;6.66;100.00
44926;BME280;30662;51.210;7.656;2023-04-30T06:36:14;150486.09;;;6.73;100.00
44926;BME280;30662;51.210;7.656;2023-04-30T06:38:40;150505.03;;;6.80;100.00
44926;BME280;30662;51.210;7.656;2023-04-30T06:41:07;150502.50;;;6.79;100.00
44926;BME280;30662;51.210;7.656;2023-04-30T06:43:33;150556.78;;;7.01;100.00
44926;BME280;30662;51.210;7.656;2023-04-30T06:45:59;150583.34;;;7.12;100.00
44926;BME280;30662;51.210;7.656;2023-04-30T06:48:25;150593.41;;;7.16;100.00
44926;BME280;30662;51.210;7.656;2023-04-30T06:50:51;150607.31;;;7.22;100.00
44926;BME280;30662;51.210;7.656;2023-04-30T06:53:17;150638.91;;;7.34;100.00
44926;BME280;30662;51.210;7.656;2023-04-30T06:55:44;150627.50;;;7.30;100.00
44926;BME280;30662;51.210;7.656;2023-04-30T06:58:13;150655.31;;;7.41;100.00
44926;BME280;30662;51.210;7.656;2023-04-30T07:00:39;150689.41;;;7.55;100.00
44926;BME280;30662;51.210;7.656;2023-04-30T07:03:05;150700.75;;;7.59;100.00
44926;BME280;30662;51.210;7.656;2023-04-30T07:05:31;150718.44;;;7.66;100.00
44926;BME280;30662;51.210;7.656;2023-04-30T07:08:01;150746.25;;;7.78;100.00
44926;BME280;30662;51.210;7.656;2023-04-30T07:10:28;150763.94;;;7.85;100.00
44926;BME280;30662;51.210;7.656;2023-04-30T07:12:54;150800.59;;;7.99;100.00
44926;BME280;30662;51.210;7.656;2023-04-30T07:15:21;150824.56;;;8.09;100.00
44926;BME280;30662;51.210;7.656;2023-04-30T07:17:47;150856.19;;;8.22;100.00
44926;BME280;30662;51.210;7.656;2023-04-30T07:20:13;150884.00;;;8.33;100.00
44926;BME280;30662;51.210;7.656;2023-04-30T07:22:42;150914.34;;;8.45;100.00
44926;BME280;30662;51.210;7.656;2023-04-30T07:25:13;150924.50;;;8.49;100.00
44926;BME280;30662;51.210;7.656;2023-04-30T07:27:40;150943.44;;;8.57;100.00
44926;BME280;30662;51.210;7.656;2023-04-30T07:30:06;150956.09;;;8.62;100.00
44926;BME280;30662;51.210;7.656;2023-04-30T07:32:34;150945.97;;;8.58;100.00
44926;BME280;30662;51.210;7.656;2023-04-30T07:35:00;150968.72;;;8.67;100.00
44926;BME280;30662;51.210;7.656;2023-04-30T07:37:26;150959.88;;;8.64;100.00
44926;BME280;30662;51.210;7.656;2023-04-30T07:39:52;150985.16;;;8.74;100.00
44926;BME280;30662;51.210;7.656;2023-04-30T07:42:18;150972.50;;;8.69;100.00
44926;BME280;30662;51.210;7.656;2023-04-30T07:44:44;150978.84;;;8.71;100.00
44926;BME280;30662;51.210;7.656;2023-04-30T07:47:10;150995.28;;;8.78;100.00
44926;BME280;30662;51.210;7.656;2023-04-30T07:49:36;151011.72;;;8.84;100.00
44926;BME280;30662;51.210;7.656;2023-04-30T07:52:02;151033.22;;;8.93;100.00
44926;BME280;30662;51.210;7.656;2023-04-30T07:54:28;151039.50;;;8.96;100.00
44926;BME280;30662;51.210;7.656;2023-04-30T07:56:54;151063.56;;;9.05;100.00
44926;BME280;30662;51.210;7.656;2023-04-30T07:59:21;151067.34;;;9.07;100.00
44926;BME280;30662;51.210;7.656;2023-04-30T08:01:50;151081.28;;;9.13;100.00
44926;BME280;30662;51.210;7.656;2023-04-30T08:04:16;151097.66;;;9.19;100.00
44926;BME280;30662;51.210;7.656;2023-04-30T08:06:42;151109.06;;;9.24;100.00
44926;BME280;30662;51.210;7.656;2023-04-30T08:09:08;151141.97;;;9.37;100.00
44926;BME280;30662;51.210;7.656;2023-04-30T08:11:34;151164.72;;;9.46;100.00
44926;BME280;30662;51.210;7.656;2023-04-30T08:14:00;151150.78;;;9.40;100.00
44926;BME280;30662;51.210;7.656;2023-04-30T08:16:26;151178.63;;;9.52;100.00
44926;BME280;30662;51.210;7.656;2023-04-30T08:18:52;151192.56;;;9.57;100.00
44926;BME280;30662;51.210;7.656;2023-04-30T08:21:17;151193.84;;;9.58;100.00
44926;BME280;30662;51.210;7.656;2023-04-30T08:23:43;151210.28;;;9.64;100.00
44926;BME280;30662;51.210;7.656;2023-04-30T08:26:09;151239.34;;;9.76;100.00
44926;BME280;30662;51.210;7.656;2023-04-30T08:28:35;151281.13;;;9.93;100.00
44926;BME280;30662;51.210;7.656;2023-04-30T08:31:01;151277.31;;;9.91;100.00
44926;BME280;30662;51.210;7.656;2023-04-30T08:33:27;151308.94;;;10.04;100.00
44926;BME280;30662;51.210;7.656;2023-04-30T08:35:53;151329.19;;;10.12;100.00
44926;BME280;30662;51.210;7.656;2023-04-30T08:38:19;151331.72;;;10.13;100.00
44926;BME280;30662;51.210;7.656;2023-04-30T08:40:59;151352.00;;;10.21;100.00
44926;BME280;30662;51.210;7.656;2023-04-30T08:43:29;151363.41;;;10.26;100.00
44926;BME280;30662;51.210;7.656;2023-04-30T08:45:55;151357.09;;;10.24;100.00
44926;BME280;30662;51.210;7.656;2023-04-30T08:48:22;151387.50;;;10.36;100.00
44926;BME280;30662;51.210;7.656;2023-04-30T08:50:49;151393.81;;;10.38;100.00
44926;BME280;30662;51.210;7.656;2023-04-30T08:53:16;151436.81;;;10.56;100.00
44926;BME280;30662;51.210;7.656;2023-04-30T08:55:42;151460.91;;;10.65;100.00
44926;BME280;30662;51.210;7.656;2023-04-30T08:58:09;151472.28;;;10.70;100.00
44926;BME280;30662;51.210;7.656;2023-04-30T09:00:37;151457.06;;;10.64;100.00
44926;BME280;30662;51.210;7.656;2023-04-30T09:03:03;151455.81;;;10.63;100.00
44926;BME280;30662;51.210;7.656;2023-04-30T09:05:30;151484.94;;;10.75;100.00
44926;BME280;30662;51.210;7.656;2023-04-30T09:07:56;151484.94;;;10.75;100.00
44926;BME280;30662;51.210;7.656;2023-04-30T09:10:26;151496.38;;;10.80;100.00
44926;BME280;30662;51.210;7.656;2023-04-30T09:15:27;151558.38;;;11.04;100.00
44926;BME280;30662;51.210;7.656;2023-04-30T09:18:18;151563.44;;;11.07;100.00
44926;BME280;30662;51.210;7.656;2023-04-30T09:20:58;151562.19;;;11.06;100.00
44926;BME280;30662;51.210;7.656;2023-04-30T09:23:28;151582.44;;;11.14;100.00
44926;BME280;30662;51.210;7.656;2023-04-30T09:25:55;151597.63;;;11.20;97.89
44926;BME280;30662;51.210;7.656;2023-04-30T09:28:22;151615.38;;;11.27;96.62
44926;BME280;30662;51.210;7.656;2023-04-30T09:30:51;151635.63;;;11.36;94.54
44926;BME280;30662;51.210;7.656;2023-04-30T09:33:17;151616.63;;;11.28;91.92
44926;BME280;30662;51.210;7.656;2023-04-30T09:35:44;151647.06;;;11.40;92.88
44926;BME280;30662;51.210;7.656;2023-04-30T09:38:29;151640.72;;;11.38;90.76
44926;BME280;30662;51.210;7.656;2023-04-30T09:41:00;151644.53;;;11.39;89.07
44926;BME280;30662;51.210;7.656;2023-04-30T09:43:27;151702.78;;;11.63;90.51
44926;BME280;30662;51.210;7.656;2023-04-30T09:45:53;151747.16;;;11.80;92.04
44926;BME280;30662;51.210;7.656;2023-04-30T09:48:22;151773.78;;;11.91;91.09
44926;BME280;30662;51.210;7.656;2023-04-30T09:50:50;151802.97;;;12.03;90.93
44926;BME280;30662;51.210;7.656;2023-04-30T09:53:16;151839.72;;;12.18;87.88
44926;BME280;30662;51.210;7.656;2023-04-30T09:55:45;151891.69;;;12.38;88.32
44926;BME280;30662;51.210;7.656;2023-04-30T09:58:13;151903.06;;;12.43;84.91
44926;BME280;30662;51.210;7.656;2023-04-30T10:00:41;151980.38;;;12.74;84.39
44926;BME280;30662;51.210;7.656;2023-04-30T10:03:11;152031.09;;;12.94;81.14
44926;BME280;30662;51.210;7.656;2023-04-30T10:05:42;152128.84;;;13.34;81.42
44926;BME280;30662;51.210;7.656;2023-04-30T10:10:48;152253.16;;;13.84;76.96
44926;BME280;30662;51.210;7.656;2023-04-30T10:13:18;152273.47;;;13.92;71.69
44926;BME280;30662;51.210;7.656;2023-04-30T10:15:50;152303.88;;;14.04;70.02
44926;BME280;30662;51.210;7.656;2023-04-30T10:18:27;152394.00;;;14.40;66.58
44926;BME280;30662;51.210;7.656;2023-04-30T10:20:54;152475.31;;;14.73;64.71
44926;BME280;30662;51.210;7.656;2023-04-30T10:23:21;152510.88;;;14.87;66.11
44926;BME280;30662;51.210;7.656;2023-04-30T10:25:48;152542.63;;;15.00;64.13
44926;BME280;30662;51.210;7.656;2023-04-30T10:28:15;152684.84;;;15.57;63.18
44926;BME280;30662;51.210;7.656;2023-04-30T10:30:41;152725.59;;;15.73;61.15
44926;BME280;30662;51.210;7.656;2023-04-30T10:36:02;152775.09;;;15.93;58.48
44926;BME280;30662;51.210;7.656;2023-04-30T10:38:30;152740.84;;;15.79;59.13
44926;BME280;30662;51.210;7.656;2023-04-30T10:40:58;152800.56;;;16.03;60.55
44926;BME280;30662;51.210;7.656;2023-04-30T10:43:26;152776.41;;;15.93;59.40
44926;BME280;30662;51.210;7.656;2023-04-30T10:45:56;152775.09;;;15.93;57.59
44926;BME280;30662;51.210;7.656;2023-04-30T10:48:22;152864.06;;;16.28;58.21
44926;BME280;30662;51.210;7.656;2023-04-30T10:50:55;152785.28;;;15.97;57.19
44926;BME280;30662;51.210;7.656;2023-04-30T10:53:22;152820.88;;;16.11;57.19
44926;BME280;30662;51.210;7.656;2023-04-30T10:56:02;152761.16;;;15.87;57.79
44926;BME280;30662;51.210;7.656;2023-04-30T10:58:34;152772.56;;;15.92;58.02
44926;BME280;30662;51.210;7.656;2023-04-30T11:01:13;152806.88;;;16.06;58.29
44926;BME280;30662;51.210;7.656;2023-04-30T11:03:41;152894.59;;;16.41;56.67
44926;BME280;30662;51.210;7.656;2023-04-30T11:06:15;152773.84;;;15.92;56.90
44926;BME280;30662;51.210;7.656;2023-04-30T11:08:45;152745.91;;;15.81;57.17
44926;BME280;30662;51.210;7.656;2023-04-30T11:11:17;152743.38;;;15.80;58.17
44926;BME280;30662;51.210;7.656;2023-04-30T11:13:52;152641.69;;;15.39;60.07
44926;BME280;30662;51.210;7.656;2023-04-30T11:16:28;152675.97;;;15.53;60.68
44926;BME280;30662;51.210;7.656;2023-04-30T11:19:04;152888.25;;;16.38;60.35
44926;BME280;30662;51.210;7.656;2023-04-30T11:21:31;153028.09;;;16.94;56.90
44926;BME280;30662;51.210;7.656;2023-04-30T11:24:02;153053.56;;;17.04;56.32
44926;BME280;30662;51.210;7.656;2023-04-30T11:26:29;152973.44;;;16.72;57.47
44926;BME280;30662;51.210;7.656;2023-04-30T11:28:55;152773.84;;;15.92;60.66
44926;BME280;30662;51.210;7.656;2023-04-30T11:31:32;152960.72;;;16.67;59.84
44926;BME280;30662;51.210;7.656;2023-04-30T11:33:58;153131.13;;;17.35;59.82
44926;BME280;30662;51.210;7.656;2023-04-30T11:36:26;153240.56;;;17.79;57.66
44926;BME280;30662;51.210;7.656;2023-04-30T11:38:56;153170.56;;;17.51;55.94
44926;BME280;30662;51.210;7.656;2023-04-30T11:41:22;153190.91;;;17.59;54.50
44926;BME280;30662;51.210;7.656;2023-04-30T11:43:51;153105.72;;;17.25;54.28
44926;BME280;30662;51.210;7.656;2023-04-30T11:46:17;152974.72;;;16.73;55.26
44926;BME280;30662;51.210;7.656;2023-04-30T11:48:44;152937.78;;;16.58;57.48
44926;BME280;30662;51.210;7.656;2023-04-30T11:51:21;153109.53;;;17.27;56.24
44926;BME280;30662;51.210;7.656;2023-04-30T11:53:50;153264.78;;;17.89;54.07
44926;BME280;30662;51.210;7.656;2023-04-30T11:56:20;153344.94;;;18.21;51.57
44926;BME280;30662;51.210;7.656;2023-04-30T11:58:47;153314.38;;;18.09;51.31
44926;BME280;30662;51.210;7.656;2023-04-30T12:01:14;153444.19;;;18.61;49.81
44926;BME280;30662;51.210;7.656;2023-04-30T12:03:46;153514.25;;;18.89;48.36
44926;BME280;30662;51.210;7.656;2023-04-30T12:06:26;153515.53;;;18.89;45.92
44926;BME280;30662;51.210;7.656;2023-04-30T12:08:57;153586.81;;;19.18;46.87
44926;BME280;30662;51.210;7.656;2023-04-30T12:11:26;153735.94;;;19.77;47.64
44926;BME280;30662;51.210;7.656;2023-04-30T12:14:02;153821.25;;;20.11;46.09
44926;BME280;30662;51.210;7.656;2023-04-30T12:16:38;153729.53;;;19.75;45.05
44926;BME280;30662;51.210;7.656;2023-04-30T12:19:04;153777.94;;;19.94;45.41
44926;BME280;30662;51.210;7.656;2023-04-30T12:21:31;153862.00;;;20.28;44.79
44926;BME280;30662;51.210;7.656;2023-04-30T12:23:57;153865.88;;;20.29;42.43
44926;BME280;30662;51.210;7.656;2023-04-30T12:26:23;153923.25;;;20.52;44.59
44926;BME280;30662;51.210;7.656;2023-04-30T12:28:50;153942.38;;;20.60;43.26
44926;BME280;30662;51.210;7.656;2023-04-30T12:31:17;153860.75;;;20.27;44.13
44926;BME280;30662;51.210;7.656;2023-04-30T12:33:43;153729.53;;;19.75;44.83
44926;BME280;30662;51.210;7.656;2023-04-30T12:36:09;153761.38;;;19.88;45.35
44926;BME280;30662;51.210;7.656;2023-04-30T12:38:35;153751.19;;;19.83;44.35
44926;BME280;30662;51.210;7.656;2023-04-30T12:41:03;153734.59;;;19.77;44.22
44926;BME280;30662;51.210;7.656;2023-04-30T12:43:29;153481.13;;;18.76;46.51
44926;BME280;30662;51.210;7.656;2023-04-30T12:45:55;153501.56;;;18.84;48.40
44926;BME280;30662;51.210;7.656;2023-04-30T12:48:23;153496.44;;;18.82;47.28
44926;BME280;30662;51.210;7.656;2023-04-30T12:50:53;153659.41;;;19.47;44.87
44926;BME280;30662;51.210;7.656;2023-04-30T12:53:20;153681.09;;;19.55;45.52
44926;BME280;30662;51.210;7.656;2023-04-30T12:56:09;153749.91;;;19.83;44.78
44926;BME280;30662;51.210;7.656;2023-04-30T12:58:37;153830.19;;;20.15;43.39
44926;BME280;30662;51.210;7.656;2023-04-30T13:01:04;153942.38;;;20.60;43.98
44926;BME280;30662;51.210;7.656;2023-04-30T13:03:30;154046.91;;;21.02;42.98
44926;BME280;30662;51.210;7.656;2023-04-30T13:05:57;154062.22;;;21.08;41.95
44926;BME280;30662;51.210;7.656;2023-04-30T13:08:23;153966.59;;;20.70;41.91
44926;BME280;30662;51.210;7.656;2023-04-30T13:10:49;153762.66;;;19.88;43.42
44926;BME280;30662;51.210;7.656;2023-04-30T13:13:16;153827.66;;;20.14;43.30
44926;BME280;30662;51.210;7.656;2023-04-30T13:15:43;153899.00;;;20.43;44.14
44926;BME280;30662;51.210;7.656;2023-04-30T13:18:09;153960.22;;;20.67;42.69